sensor_id;sensor_type;location;lat;lon;timestamp;P1;durP1;ratioP1;P2;durP2;ratioP2
33206;SDS011;19565;46.602;11.534;2023-03-08T00:01:21;13.97;;;13.20;;
33206;SDS011;19565;46.602;11.534;2023-03-08T00:03:51;13.80;;;12.90;;
33206;SDS011;19565;46.602;11.534;2023-03-08T00:06:20;14.10;;;13.30;;
33206;SDS011;19565;46.602;11.534;2023-03-08T00:08:48;14.33;;;13.33;;
33206;SDS011;19565;46.602;11.534;2023-03-08T00:11:18;13.87;;;13.07;;
33206;SDS011;19565;46.602;11.534;2023-03-08T00:13:46;14.33;;;13.20;;
33206;SDS011;19565;46.602;11.534;2023-03-08T00:16:14;16.23;;;14.93;;
33206;SDS011;19565;46.602;11.534;2023-03-08T00:18:43;13.27;;;12.40;;
33206;SDS011;19565;46.602;11.534;2023-03-08T00:21:12;13.37;;;12.57;;
33206;SDS011;19565;46.602;11.534;2023-03-08T00:23:42;13.20;;;12.50;;
33206;SDS011;19565;46.602;11.534;2023-03-08T00:26:11;11.83;;;11.17;;
33206;SDS011;19565;46.602;11.534;2023-03-08T00:28:41;13.50;;;12.70;;
33206;SDS011;19565;46.602;11.534;2023-03-08T00:31:10;13.43;;;12.47;;
33206;SDS011;19565;46.602;11.534;2023-03-08T00:33:39;14.03;;;12.93;;
33206;SDS011;19565;46.602;11.534;2023-03-08T00:36:09;14.03;;;13.17;;
33206;SDS011;19565;46.602;11.534;2023-03-08T00:38:40;13.43;;;12.67;;
33206;SDS011;19565;46.602;11.534;2023-03-08T00:41:08;14.00;;;13.20;;
33206;SDS011;19565;46.602;11.534;2023-03-08T00:43:37;13.37;;;12.57;;
33206;SDS011;19565;46.602;11.534;2023-03-08T00:46:09;13.90;;;12.80;;
33206;SDS011;19565;46.602;11.534;2023-03-08T00:48:37;13.70;;;12.77;;
33206;SDS011;19565;46.602;11.534;2023-03-08T00:51:06;11.83;;;11.10;;
33206;SDS011;19565;46.602;11.534;2023-03-08T00:53:35;13.30;;;12.47;;
33206;SDS011;19565;46.602;11.534;2023-03-08T00:56:03;15.37;;;14.10;;
33206;SDS011;19565;46.602;11.534;2023-03-08T00:58:31;11.07;;;10.47;;
33206;SDS011;19565;46.602;11.534;2023-03-08T01:01:00;12.10;;;11.40;;
33206;SDS011;19565;46.602;11.534;2023-03-08T01:03:29;13.93;;;13.10;;
33206;SDS011;19565;46.602;11.534;2023-03-08T01:05:58;13.33;;;12.33;;
33206;SDS011;19565;46.602;11.534;2023-03-08T01:08:31;14.33;;;13.53;;
33206;SDS011;19565;46.602;11.534;2023-03-08T01:11:00;12.50;;;11.80;;
33206;SDS011;19565;46.602;11.534;2023-03-08T01:13:29;13.20;;;12.40;;
33206;SDS011;19565;46.602;11.534;2023-03-08T01:15:58;14.63;;;13.60;;
33206;SDS011;19565;46.602;11.534;2023-03-08T01:18:27;12.37;;;11.57;;
33206;SDS011;19565;46.602;11.534;2023-03-08T01:20:57;13.33;;;12.57;;
33206;SDS011;19565;46.602;11.534;2023-03-08T01:23:26;16.53;;;13.20;;
33206;SDS011;19565;46.602;11.534;2023-03-08T01:25:57;12.80;;;11.80;;
33206;SDS011;19565;46.602;11.534;2023-03-08T01:28:26;14.70;;;13.80;;
33206;SDS011;19565;46.602;11.534;2023-03-08T01:30:59;13.57;;;12.77;;
33206;SDS011;19565;46.602;11.534;2023-03-08T01:33:28;11.73;;;11.13;;
33206;SDS011;19565;46.602;11.534;2023-03-08T01:35:57;14.23;;;13.43;;
33206;SDS011;19565;46.602;11.534;2023-03-08T01:38:25;12.40;;;11.70;;
33206;SDS011;19565;46.602;11.534;2023-03-08T01:40:54;12.43;;;11.77;;
33206;SDS011;19565;46.602;11.534;2023-03-08T01:43:24;14.87;;;13.83;;
33206;SDS011;19565;46.602;11.534;2023-03-08T01:46:06;12.93;;;12.13;;
33206;SDS011;19565;46.602;11.534;2023-03-08T01:48:44;12.80;;;12.00;;
33206;SDS011;19565;46.602;11.534;2023-03-08T01:51:19;14.37;;;13.47;;
33206;SDS011;19565;46.602;11.534;2023-03-08T01:53:49;14.47;;;13.57;;
33206;SDS011;19565;46.602;11.534;2023-03-08T01:56:18;16.47;;;12.70;;
33206;SDS011;19565;46.602;11.534;2023-03-08T01:58:48;14.43;;;13.37;;
33206;SDS011;19565;46.602;11.534;2023-03-08T02:01:18;15.50;;;14.27;;
33206;SDS011;19565;46.602;11.534;2023-03-08T02:03:46;31.67;;;30.17;;
33206;SDS011;19565;46.602;11.534;2023-03-08T02:06:15;35.60;;;32.40;;
33206;SDS011;19565;46.602;11.534;2023-03-08T02:08:45;32.33;;;30.93;;
33206;SDS011;19565;46.602;11.534;2023-03-08T02:11:13;31.30;;;29.90;;
33206;SDS011;19565;46.602;11.534;2023-03-08T02:13:44;33.47;;;31.97;;
33206;SDS011;19565;46.602;11.534;2023-03-08T02:16:12;33.53;;;32.03;;
33206;SDS011;19565;46.602;11.534;2023-03-08T02:18:49;36.17;;;33.93;;
33206;SDS011;19565;46.602;11.534;2023-03-08T02:21:18;33.50;;;31.90;;
33206;SDS011;19565;46.602;11.534;2023-03-08T02:23:48;31.87;;;30.40;;
33206;SDS011;19565;46.602;11.534;2023-03-08T02:26:16;13.90;;;13.10;;
33206;SDS011;19565;46.602;11.534;2023-03-08T02:28:44;13.20;;;12.47;;
33206;SDS011;19565;46.602;11.534;2023-03-08T02:31:13;13.37;;;12.57;;
33206;SDS011;19565;46.602;11.534;2023-03-08T02:33:41;13.47;;;12.67;;
33206;SDS011;19565;46.602;11.534;2023-03-08T02:36:09;12.63;;;11.97;;
33206;SDS011;19565;46.602;11.534;2023-03-08T02:38:37;14.83;;;14.03;;
33206;SDS011;19565;46.602;11.534;2023-03-08T02:41:07;14.00;;;13.07;;
33206;SDS011;19565;46.602;11.534;2023-03-08T02:43:35;12.87;;;12.17;;
33206;SDS011;19565;46.602;11.534;2023-03-08T02:46:03;12.73;;;12.03;;
33206;SDS011;19565;46.602;11.534;2023-03-08T02:48:31;32.80;;;31.13;;
33206;SDS011;19565;46.602;11.534;2023-03-08T02:50:59;32.77;;;31.03;;
33206;SDS011;19565;46.602;11.534;2023-03-08T02:53:27;33.50;;;31.13;;
33206;SDS011;19565;46.602;11.534;2023-03-08T02:55:55;33.40;;;31.73;;
33206;SDS011;19565;46.602;11.534;2023-03-08T02:58:25;34.33;;;32.40;;
33206;SDS011;19565;46.602;11.534;2023-03-08T03:00:53;32.13;;;30.60;;
33206;SDS011;19565;46.602;11.534;2023-03-08T03:03:21;31.60;;;30.20;;
33206;SDS011;19565;46.602;11.534;2023-03-08T03:05:49;33.00;;;31.40;;
33206;SDS011;19565;46.602;11.534;2023-03-08T03:08:17;32.00;;;30.60;;
33206;SDS011;19565;46.602;11.534;2023-03-08T03:10:45;31.77;;;30.07;;
33206;SDS011;19565;46.602;11.534;2023-03-08T03:13:13;30.40;;;28.97;;
33206;SDS011;19565;46.602;11.534;2023-03-08T03:15:42;30.37;;;28.97;;
33206;SDS011;19565;46.602;11.534;2023-03-08T03:18:10;30.73;;;29.33;;
33206;SDS011;19565;46.602;11.534;2023-03-08T03:20:39;32.47;;;30.97;;
33206;SDS011;19565;46.602;11.534;2023-03-08T03:23:06;32.57;;;30.77;;
33206;SDS011;19565;46.602;11.534;2023-03-08T03:25:35;30.33;;;29.03;;
33206;SDS011;19565;46.602;11.534;2023-03-08T03:28:03;31.93;;;30.43;;
33206;SDS011;19565;46.602;11.534;2023-03-08T03:30:31;29.60;;;28.30;;
33206;SDS011;19565;46.602;11.534;2023-03-08T03:33:01;32.67;;;31.07;;
33206;SDS011;19565;46.602;11.534;2023-03-08T03:35:29;30.33;;;28.93;;
33206;SDS011;19565;46.602;11.534;2023-03-08T03:37:57;32.30;;;30.53;;
33206;SDS011;19565;46.602;11.534;2023-03-08T03:40:25;33.57;;;31.93;;
33206;SDS011;19565;46.602;11.534;2023-03-08T03:42:53;31.70;;;30.30;;
33206;SDS011;19565;46.602;11.534;2023-03-08T03:45:21;31.67;;;30.27;;
33206;SDS011;19565;46.602;11.534;2023-03-08T03:47:49;33.03;;;30.13;;
33206;SDS011;19565;46.602;11.534;2023-03-08T03:50:18;32.60;;;30.70;;
33206;SDS011;19565;46.602;11.534;2023-03-08T03:52:46;32.20;;;30.60;;
33206;SDS011;19565;46.602;11.534;2023-03-08T03:55:14;31.77;;;29.80;;
33206;SDS011;19565;46.602;11.534;2023-03-08T03:57:42;30.53;;;29.17;;
33206;SDS011;19565;46.602;11.534;2023-03-08T04:00:11;31.60;;;30.20;;
33206;SDS011;19565;46.602;11.534;2023-03-08T04:02:40;30.20;;;28.70;;
33206;SDS011;19565;46.602;11.534;2023-03-08T04:05:08;31.57;;;29.87;;
33206;SDS011;19565;46.602;11.534;2023-03-08T04:07:37;29.73;;;28.43;;
33206;SDS011;19565;46.602;11.534;2023-03-08T04:10:05;31.67;;;30.23;;
33206;SDS011;19565;46.602;11.534;2023-03-08T04:12:34;28.67;;;27.30;;
33206;SDS011;19565;46.602;11.534;2023-03-08T04:15:02;28.37;;;26.90;;
33206;SDS011;19565;46.602;11.534;2023-03-08T04:17:31;28.30;;;27.00;;
33206;SDS011;19565;46.602;11.534;2023-03-08T04:19:59;27.00;;;25.70;;
33206;SDS011;19565;46.602;11.534;2023-03-08T04:22:27;29.80;;;27.73;;
33206;SDS011;19565;46.602;11.534;2023-03-08T04:24:56;27.83;;;26.53;;
33206;SDS011;19565;46.602;11.534;2023-03-08T04:27:24;28.40;;;26.90;;
33206;SDS011;19565;46.602;11.534;2023-03-08T04:29:53;27.73;;;26.33;;
33206;SDS011;19565;46.602;11.534;2023-03-08T04:32:21;27.53;;;25.67;;
33206;SDS011;19565;46.602;11.534;2023-03-08T04:34:49;27.53;;;26.30;;
33206;SDS011;19565;46.602;11.534;2023-03-08T04:37:17;26.30;;;25.07;;
33206;SDS011;19565;46.602;11.534;2023-03-08T04:39:45;28.00;;;26.67;;
33206;SDS011;19565;46.602;11.534;2023-03-08T04:42:15;26.97;;;25.77;;
33206;SDS011;19565;46.602;11.534;2023-03-08T04:44:43;26.03;;;24.73;;
33206;SDS011;19565;46.602;11.534;2023-03-08T04:47:11;26.70;;;25.50;;
33206;SDS011;19565;46.602;11.534;2023-03-08T04:49:39;28.00;;;26.70;;
33206;SDS011;19565;46.602;11.534;2023-03-08T04:52:07;26.93;;;25.63;;
33206;SDS011;19565;46.602;11.534;2023-03-08T04:54:35;25.53;;;24.33;;
33206;SDS011;19565;46.602;11.534;2023-03-08T04:57:03;26.47;;;25.27;;
33206;SDS011;19565;46.602;11.534;2023-03-08T04:59:32;26.17;;;24.70;;
33206;SDS011;19565;46.602;11.534;2023-03-08T05:02:00;29.00;;;27.63;;
33206;SDS011;19565;46.602;11.534;2023-03-08T05:04:29;25.63;;;24.43;;
33206;SDS011;19565;46.602;11.534;2023-03-08T05:06:57;24.13;;;23.03;;
33206;SDS011;19565;46.602;11.534;2023-03-08T05:09:25;24.20;;;23.10;;
33206;SDS011;19565;46.602;11.534;2023-03-08T05:11:53;25.43;;;24.23;;
33206;SDS011;19565;46.602;11.534;2023-03-08T05:14:23;26.80;;;25.50;;
33206;SDS011;19565;46.602;11.534;2023-03-08T05:16:54;27.63;;;26.33;;
33206;SDS011;19565;46.602;11.534;2023-03-08T05:19:23;25.03;;;23.73;;
33206;SDS011;19565;46.602;11.534;2023-03-08T05:21:51;27.33;;;25.77;;
33206;SDS011;19565;46.602;11.534;2023-03-08T05:24:19;26.73;;;25.23;;
33206;SDS011;19565;46.602;11.534;2023-03-08T05:26:47;25.50;;;24.30;;
33206;SDS011;19565;46.602;11.534;2023-03-08T05:29:15;25.73;;;24.43;;
33206;SDS011;19565;46.602;11.534;2023-03-08T05:31:43;24.13;;;23.03;;
33206;SDS011;19565;46.602;11.534;2023-03-08T05:34:13;24.87;;;23.77;;
33206;SDS011;19565;46.602;11.534;2023-03-08T05:36:41;23.87;;;22.77;;
33206;SDS011;19565;46.602;11.534;2023-03-08T05:39:09;26.70;;;25.40;;
33206;SDS011;19565;46.602;11.534;2023-03-08T05:41:37;25.00;;;23.90;;
33206;SDS011;19565;46.602;11.534;2023-03-08T05:44:06;31.17;;;29.50;;
33206;SDS011;19565;46.602;11.534;2023-03-08T05:46:33;26.73;;;25.53;;
33206;SDS011;19565;46.602;11.534;2023-03-08T05:49:03;26.70;;;24.97;;
33206;SDS011;19565;46.602;11.534;2023-03-08T05:51:33;24.17;;;23.07;;
33206;SDS011;19565;46.602;11.534;2023-03-08T05:54:01;22.23;;;21.20;;
33206;SDS011;19565;46.602;11.534;2023-03-08T05:56:29;21.13;;;19.97;;
33206;SDS011;19565;46.602;11.534;2023-03-08T05:58:57;19.37;;;18.37;;
33206;SDS011;19565;46.602;11.534;2023-03-08T06:01:26;20.23;;;18.47;;
33206;SDS011;19565;46.602;11.534;2023-03-08T06:03:55;20.50;;;19.17;;
33206;SDS011;19565;46.602;11.534;2023-03-08T06:06:24;20.20;;;19.10;;
33206;SDS011;19565;46.602;11.534;2023-03-08T06:08:54;20.23;;;19.20;;
33206;SDS011;19565;46.602;11.534;2023-03-08T06:11:23;20.80;;;19.80;;
33206;SDS011;19565;46.602;11.534;2023-03-08T06:13:51;20.53;;;19.53;;
33206;SDS011;19565;46.602;11.534;2023-03-08T06:16:20;21.77;;;20.63;;
33206;SDS011;19565;46.602;11.534;2023-03-08T06:18:48;22.73;;;21.37;;
33206;SDS011;19565;46.602;11.534;2023-03-08T06:21:16;23.43;;;22.30;;
33206;SDS011;19565;46.602;11.534;2023-03-08T06:23:47;21.27;;;20.07;;
33206;SDS011;19565;46.602;11.534;2023-03-08T06:26:18;22.13;;;21.03;;
33206;SDS011;19565;46.602;11.534;2023-03-08T06:28:46;22.87;;;21.80;;
33206;SDS011;19565;46.602;11.534;2023-03-08T06:31:15;22.63;;;21.43;;
33206;SDS011;19565;46.602;11.534;2023-03-08T06:33:44;11.03;;;10.33;;
33206;SDS011;19565;46.602;11.534;2023-03-08T06:36:12;10.40;;;9.70;;
33206;SDS011;19565;46.602;11.534;2023-03-08T06:38:42;14.63;;;13.83;;
33206;SDS011;19565;46.602;11.534;2023-03-08T06:41:11;10.80;;;10.10;;
33206;SDS011;19565;46.602;11.534;2023-03-08T06:43:41;12.20;;;11.50;;
33206;SDS011;19565;46.602;11.534;2023-03-08T06:46:10;11.10;;;10.40;;
33206;SDS011;19565;46.602;11.534;2023-03-08T06:48:39;14.63;;;12.57;;
33206;SDS011;19565;46.602;11.534;2023-03-08T06:51:07;9.73;;;9.00;;
33206;SDS011;19565;46.602;11.534;2023-03-08T06:53:36;10.70;;;10.10;;
33206;SDS011;19565;46.602;11.534;2023-03-08T06:56:04;12.67;;;11.80;;
33206;SDS011;19565;46.602;11.534;2023-03-08T06:58:34;9.57;;;8.77;;
33206;SDS011;19565;46.602;11.534;2023-03-08T07:01:04;11.33;;;10.63;;
33206;SDS011;19565;46.602;11.534;2023-03-08T07:03:35;13.27;;;12.23;;
33206;SDS011;19565;46.602;11.534;2023-03-08T07:06:04;10.80;;;10.20;;
33206;SDS011;19565;46.602;11.534;2023-03-08T07:08:33;12.77;;;12.00;;
33206;SDS011;19565;46.602;11.534;2023-03-08T07:11:01;25.90;;;24.70;;
33206;SDS011;19565;46.602;11.534;2023-03-08T07:13:29;27.07;;;25.60;;
33206;SDS011;19565;46.602;11.534;2023-03-08T07:16:05;29.60;;;27.67;;
33206;SDS011;19565;46.602;11.534;2023-03-08T07:18:34;27.17;;;25.87;;
33206;SDS011;19565;46.602;11.534;2023-03-08T07:21:05;28.67;;;27.40;;
33206;SDS011;19565;46.602;11.534;2023-03-08T07:23:35;33.40;;;31.80;;
33206;SDS011;19565;46.602;11.534;2023-03-08T07:26:04;30.30;;;29.00;;
33206;SDS011;19565;46.602;11.534;2023-03-08T07:28:32;26.97;;;25.77;;
33206;SDS011;19565;46.602;11.534;2023-03-08T07:31:00;31.50;;;30.00;;
33206;SDS011;19565;46.602;11.534;2023-03-08T07:33:30;33.50;;;32.03;;
33206;SDS011;19565;46.602;11.534;2023-03-08T07:35:58;34.03;;;32.40;;
33206;SDS011;19565;46.602;11.534;2023-03-08T07:38:27;32.80;;;31.20;;
33206;SDS011;19565;46.602;11.534;2023-03-08T07:40:56;29.73;;;28.17;;
33206;SDS011;19565;46.602;11.534;2023-03-08T07:43:24;17.13;;;16.23;;
33206;SDS011;19565;46.602;11.534;2023-03-08T07:45:52;12.30;;;11.60;;
33206;SDS011;19565;46.602;11.534;2023-03-08T07:48:20;12.43;;;11.73;;
33206;SDS011;19565;46.602;11.534;2023-03-08T07:50:49;12.13;;;11.33;;
33206;SDS011;19565;46.602;11.534;2023-03-08T07:53:17;15.27;;;14.30;;
33206;SDS011;19565;46.602;11.534;2023-03-08T07:55:45;16.37;;;15.57;;
33206;SDS011;19565;46.602;11.534;2023-03-08T07:58:13;15.00;;;14.20;;
33206;SDS011;19565;46.602;11.534;2023-03-08T08:00:41;13.73;;;12.97;;
33206;SDS011;19565;46.602;11.534;2023-03-08T08:03:10;19.53;;;18.53;;
33206;SDS011;19565;46.602;11.534;2023-03-08T08:05:41;19.33;;;17.70;;
33206;SDS011;19565;46.602;11.534;2023-03-08T08:08:10;18.97;;;17.97;;
33206;SDS011;19565;46.602;11.534;2023-03-08T08:10:42;14.67;;;13.97;;
33206;SDS011;19565;46.602;11.534;2023-03-08T08:13:11;16.17;;;15.17;;
33206;SDS011;19565;46.602;11.534;2023-03-08T08:15:39;16.90;;;15.93;;
33206;SDS011;19565;46.602;11.534;2023-03-08T08:18:07;16.60;;;15.70;;
33206;SDS011;19565;46.602;11.534;2023-03-08T08:20:35;16.80;;;15.90;;
33206;SDS011;19565;46.602;11.534;2023-03-08T08:23:04;15.80;;;14.90;;
33206;SDS011;19565;46.602;11.534;2023-03-08T08:25:34;18.70;;;17.63;;
33206;SDS011;19565;46.602;11.534;2023-03-08T08:28:02;19.53;;;18.33;;
33206;SDS011;19565;46.602;11.534;2023-03-08T08:30:30;18.83;;;17.63;;
33206;SDS011;19565;46.602;11.534;2023-03-08T08:32:58;18.50;;;17.30;;
33206;SDS011;19565;46.602;11.534;2023-03-08T08:35:28;18.03;;;17.03;;
33206;SDS011;19565;46.602;11.534;2023-03-08T08:38:08;17.27;;;16.17;;
33206;SDS011;19565;46.602;11.534;2023-03-08T08:40:38;16.00;;;15.07;;
33206;SDS011;19565;46.602;11.534;2023-03-08T08:43:06;18.10;;;16.90;;
33206;SDS011;19565;46.602;11.534;2023-03-08T08:45:34;19.27;;;17.67;;
33206;SDS011;19565;46.602;11.534;2023-03-08T08:48:02;20.00;;;19.00;;
33206;SDS011;19565;46.602;11.534;2023-03-08T08:50:31;30.40;;;29.07;;
33206;SDS011;19565;46.602;11.534;2023-03-08T08:52:59;18.10;;;16.80;;
33206;SDS011;19565;46.602;11.534;2023-03-08T08:55:27;21.70;;;20.60;;
33206;SDS011;19565;46.602;11.534;2023-03-08T08:57:56;23.67;;;22.53;;
33206;SDS011;19565;46.602;11.534;2023-03-08T09:00:24;25.53;;;24.33;;
33206;SDS011;19565;46.602;11.534;2023-03-08T09:02:52;20.43;;;19.33;;
33206;SDS011;19565;46.602;11.534;2023-03-08T09:05:21;19.47;;;18.57;;
33206;SDS011;19565;46.602;11.534;2023-03-08T09:07:49;20.13;;;19.13;;
33206;SDS011;19565;46.602;11.534;2023-03-08T09:10:20;19.70;;;18.70;;
33206;SDS011;19565;46.602;11.534;2023-03-08T09:12:48;21.97;;;20.77;;
33206;SDS011;19565;46.602;11.534;2023-03-08T09:15:18;21.10;;;20.00;;
33206;SDS011;19565;46.602;11.534;2023-03-08T09:17:46;20.70;;;19.57;;
33206;SDS011;19565;46.602;11.534;2023-03-08T09:20:15;40.00;;;38.30;;
33206;SDS011;19565;46.602;11.534;2023-03-08T09:22:43;39.30;;;37.53;;
33206;SDS011;19565;46.602;11.534;2023-03-08T09:25:11;40.30;;;38.43;;
33206;SDS011;19565;46.602;11.534;2023-03-08T09:27:41;38.40;;;36.70;;
33206;SDS011;19565;46.602;11.534;2023-03-08T09:30:10;39.47;;;37.47;;
33206;SDS011;19565;46.602;11.534;2023-03-08T09:32:42;41.83;;;39.63;;
33206;SDS011;19565;46.602;11.534;2023-03-08T09:35:10;41.17;;;38.97;;
33206;SDS011;19565;46.602;11.534;2023-03-08T09:37:40;44.87;;;42.97;;
33206;SDS011;19565;46.602;11.534;2023-03-08T09:40:11;39.50;;;37.70;;
33206;SDS011;19565;46.602;11.534;2023-03-08T09:42:45;40.63;;;38.73;;
33206;SDS011;19565;46.602;11.534;2023-03-08T09:45:19;37.90;;;36.20;;
33206;SDS011;19565;46.602;11.534;2023-03-08T09:47:56;40.70;;;38.90;;
33206;SDS011;19565;46.602;11.534;2023-03-08T09:50:32;39.93;;;38.23;;
33206;SDS011;19565;46.602;11.534;2023-03-08T09:53:17;39.10;;;37.40;;
33206;SDS011;19565;46.602;11.534;2023-03-08T09:55:53;69.57;;;65.83;;
33206;SDS011;19565;46.602;11.534;2023-03-08T09:58:28;25.37;;;24.20;;
33206;SDS011;19565;46.602;11.534;2023-03-08T10:01:03;33.73;;;32.13;;
33206;SDS011;19565;46.602;11.534;2023-03-08T10:03:57;21.07;;;19.97;;
33206;SDS011;19565;46.602;11.534;2023-03-08T10:06:43;39.00;;;37.30;;
33206;SDS011;19565;46.602;11.534;2023-03-08T10:09:25;36.17;;;34.30;;
33206;SDS011;19565;46.602;11.534;2023-03-08T10:12:00;40.93;;;39.23;;
33206;SDS011;19565;46.602;11.534;2023-03-08T10:14:39;47.90;;;45.70;;
33206;SDS011;19565;46.602;11.534;2023-03-08T10:17:10;45.37;;;43.43;;
33206;SDS011;19565;46.602;11.534;2023-03-08T10:19:44;40.93;;;39.10;;
33206;SDS011;19565;46.602;11.534;2023-03-08T10:22:21;43.77;;;41.90;;
33206;SDS011;19565;46.602;11.534;2023-03-08T10:24:53;37.60;;;35.97;;
33206;SDS011;19565;46.602;11.534;2023-03-08T10:27:26;45.33;;;43.30;;
33206;SDS011;19565;46.602;11.534;2023-03-08T10:29:59;42.43;;;40.43;;
33206;SDS011;19565;46.602;11.534;2023-03-08T10:32:28;44.77;;;42.67;;
33206;SDS011;19565;46.602;11.534;2023-03-08T10:35:00;42.67;;;40.83;;
33206;SDS011;19565;46.602;11.534;2023-03-08T10:37:30;40.30;;;38.53;;
33206;SDS011;19565;46.602;11.534;2023-03-08T10:39:59;39.20;;;37.47;;
33206;SDS011;19565;46.602;11.534;2023-03-08T10:42:32;43.53;;;41.73;;
33206;SDS011;19565;46.602;11.534;2023-03-08T10:45:03;43.30;;;41.30;;
33206;SDS011;19565;46.602;11.534;2023-03-08T10:47:39;42.93;;;41.07;;
33206;SDS011;19565;46.602;11.534;2023-03-08T10:50:13;38.70;;;36.83;;
33206;SDS011;19565;46.602;11.534;2023-03-08T10:52:43;41.43;;;39.13;;
33206;SDS011;19565;46.602;11.534;2023-03-08T10:55:13;40.67;;;38.77;;
33206;SDS011;19565;46.602;11.534;2023-03-08T10:57:47;41.50;;;39.40;;
33206;SDS011;19565;46.602;11.534;2023-03-08T11:00:28;48.20;;;46.00;;
33206;SDS011;19565;46.602;11.534;2023-03-08T11:03:03;48.37;;;45.83;;
33206;SDS011;19565;46.602;11.534;2023-03-08T11:05:40;53.50;;;51.20;;
33206;SDS011;19565;46.602;11.534;2023-03-08T11:08:19;41.50;;;39.70;;
33206;SDS011;19565;46.602;11.534;2023-03-08T11:10:58;17.43;;;16.53;;
33206;SDS011;19565;46.602;11.534;2023-03-08T11:13:28;18.67;;;17.77;;
33206;SDS011;19565;46.602;11.534;2023-03-08T11:16:00;17.77;;;16.77;;
33206;SDS011;19565;46.602;11.534;2023-03-08T11:18:50;18.50;;;17.60;;
33206;SDS011;19565;46.602;11.534;2023-03-08T11:21:28;16.48;;;15.57;;
33206;SDS011;19565;46.602;11.534;2023-03-08T11:24:06;18.30;;;17.30;;
33206;SDS011;19565;46.602;11.534;2023-03-08T11:26:47;16.85;;;15.95;;
33206;SDS011;19565;46.602;11.534;2023-03-08T11:29:27;17.55;;;16.65;;
33206;SDS011;19565;46.602;11.534;2023-03-08T11:32:08;17.75;;;16.85;;
33206;SDS011;19565;46.602;11.534;2023-03-08T11:34:53;16.75;;;15.93;;
33206;SDS011;19565;46.602;11.534;2023-03-08T11:37:34;17.88;;;16.88;;
33206;SDS011;19565;46.602;11.534;2023-03-08T11:40:12;17.30;;;16.20;;
33206;SDS011;19565;46.602;11.534;2023-03-08T11:42:50;19.10;;;17.85;;
33206;SDS011;19565;46.602;11.534;2023-03-08T11:45:28;18.40;;;17.30;;
33206;SDS011;19565;46.602;11.534;2023-03-08T11:48:08;17.80;;;16.70;;
33206;SDS011;19565;46.602;11.534;2023-03-08T11:50:51;17.45;;;16.50;;
33206;SDS011;19565;46.602;11.534;2023-03-08T11:53:27;16.92;;;15.90;;
33206;SDS011;19565;46.602;11.534;2023-03-08T11:56:10;16.67;;;15.82;;
33206;SDS011;19565;46.602;11.534;2023-03-08T11:58:57;17.02;;;16.17;;
33206;SDS011;19565;46.602;11.534;2023-03-08T12:01:30;23.67;;;22.48;;
33206;SDS011;19565;46.602;11.534;2023-03-08T12:04:05;20.05;;;18.95;;
33206;SDS011;19565;46.602;11.534;2023-03-08T12:06:38;22.27;;;21.27;;
33206;SDS011;19565;46.602;11.534;2023-03-08T12:09:13;21.33;;;20.27;;
33206;SDS011;19565;46.602;11.534;2023-03-08T12:11:48;20.80;;;19.80;;
33206;SDS011;19565;46.602;11.534;2023-03-08T12:14:22;20.02;;;19.02;;
33206;SDS011;19565;46.602;11.534;2023-03-08T12:16:53;21.73;;;20.73;;
33206;SDS011;19565;46.602;11.534;2023-03-08T12:19:29;19.60;;;18.50;;
33206;SDS011;19565;46.602;11.534;2023-03-08T12:22:05;19.95;;;18.88;;
33206;SDS011;19565;46.602;11.534;2023-03-08T12:24:45;20.80;;;19.73;;
33206;SDS011;19565;46.602;11.534;2023-03-08T12:27:19;20.55;;;19.52;;
33206;SDS011;19565;46.602;11.534;2023-03-08T12:29:53;22.33;;;21.23;;
33206;SDS011;19565;46.602;11.534;2023-03-08T12:32:26;19.63;;;18.73;;
33206;SDS011;19565;46.602;11.534;2023-03-08T12:35:01;19.73;;;18.77;;
33206;SDS011;19565;46.602;11.534;2023-03-08T12:37:31;18.85;;;17.95;;
33206;SDS011;19565;46.602;11.534;2023-03-08T12:40:03;21.15;;;20.05;;
33206;SDS011;19565;46.602;11.534;2023-03-08T12:42:34;26.25;;;24.88;;
33206;SDS011;19565;46.602;11.534;2023-03-08T12:45:04;20.75;;;19.65;;
33206;SDS011;19565;46.602;11.534;2023-03-08T12:47:34;20.55;;;19.55;;
33206;SDS011;19565;46.602;11.534;2023-03-08T12:50:07;21.08;;;19.98;;
33206;SDS011;19565;46.602;11.534;2023-03-08T12:52:37;20.45;;;19.33;;
33206;SDS011;19565;46.602;11.534;2023-03-08T12:55:16;18.90;;;18.00;;
33206;SDS011;19565;46.602;11.534;2023-03-08T12:57:47;20.52;;;19.52;;
33206;SDS011;19565;46.602;11.534;2023-03-08T13:00:23;21.23;;;20.23;;
33206;SDS011;19565;46.602;11.534;2023-03-08T13:02:57;21.33;;;20.23;;
33206;SDS011;19565;46.602;11.534;2023-03-08T13:05:33;19.23;;;18.02;;
33206;SDS011;19565;46.602;11.534;2023-03-08T13:08:05;22.10;;;21.00;;
33206;SDS011;19565;46.602;11.534;2023-03-08T13:10:55;20.48;;;19.40;;
33206;SDS011;19565;46.602;11.534;2023-03-08T13:13:28;20.35;;;19.40;;
33206;SDS011;19565;46.602;11.534;2023-03-08T13:16:06;20.92;;;19.92;;
33206;SDS011;19565;46.602;11.534;2023-03-08T13:18:47;22.08;;;20.88;;
33206;SDS011;19565;46.602;11.534;2023-03-08T13:21:25;20.42;;;19.38;;
33206;SDS011;19565;46.602;11.534;2023-03-08T13:24:01;19.42;;;18.52;;
33206;SDS011;19565;46.602;11.534;2023-03-08T13:26:48;18.02;;;17.02;;
33206;SDS011;19565;46.602;11.534;2023-03-08T13:29:26;18.90;;;17.90;;
33206;SDS011;19565;46.602;11.534;2023-03-08T13:32:02;19.60;;;18.63;;
33206;SDS011;19565;46.602;11.534;2023-03-08T13:34:33;18.85;;;17.95;;
33206;SDS011;19565;46.602;11.534;2023-03-08T13:37:01;19.92;;;18.83;;
33206;SDS011;19565;46.602;11.534;2023-03-08T13:39:29;21.67;;;20.50;;
33206;SDS011;19565;46.602;11.534;2023-03-08T13:42:06;19.50;;;18.52;;
33206;SDS011;19565;46.602;11.534;2023-03-08T13:44:36;20.30;;;19.23;;
33206;SDS011;19565;46.602;11.534;2023-03-08T13:47:12;19.67;;;18.65;;
33206;SDS011;19565;46.602;11.534;2023-03-08T13:49:46;20.90;;;19.60;;
33206;SDS011;19565;46.602;11.534;2023-03-08T13:52:17;20.52;;;19.42;;
33206;SDS011;19565;46.602;11.534;2023-03-08T13:54:48;20.27;;;19.17;;
33206;SDS011;19565;46.602;11.534;2023-03-08T13:57:20;17.67;;;16.77;;
33206;SDS011;19565;46.602;11.534;2023-03-08T13:59:50;21.98;;;20.75;;
33206;SDS011;19565;46.602;11.534;2023-03-08T14:02:21;21.67;;;20.67;;
33206;SDS011;19565;46.602;11.534;2023-03-08T14:04:51;22.00;;;20.73;;
33206;SDS011;19565;46.602;11.534;2023-03-08T14:07:21;28.05;;;26.30;;
33206;SDS011;19565;46.602;11.534;2023-03-08T14:09:50;30.92;;;29.42;;
33206;SDS011;19565;46.602;11.534;2023-03-08T14:12:20;22.55;;;21.15;;
33206;SDS011;19565;46.602;11.534;2023-03-08T14:14:51;31.70;;;30.27;;
33206;SDS011;19565;46.602;11.534;2023-03-08T14:17:22;30.13;;;28.17;;
33206;SDS011;19565;46.602;11.534;2023-03-08T14:19:54;26.88;;;25.67;;
33206;SDS011;19565;46.602;11.534;2023-03-08T14:22:24;26.15;;;24.95;;
33206;SDS011;19565;46.602;11.534;2023-03-08T14:25:05;22.20;;;21.10;;
33206;SDS011;19565;46.602;11.534;2023-03-08T14:27:47;20.52;;;19.42;;
33206;SDS011;19565;46.602;11.534;2023-03-08T14:30:16;24.30;;;23.10;;